Bridgeport Valley, California Weather observations

Data are for 10 minute period ending at time listed.
 Day   Time   Solar   Ave.   Ave.  Ave.  Vector  Max.   Baro.   Total    
  of    of     Rad.   Air    Rel.  Wind   Wind   Wind  Press.  Precip.   
Year   Day            Temp.  Hum.  Speed  Dir.   Gust                    
2017   (PST)  Kw/m2    F      %     mph   deg.    mph    mb.     in.     
-------------------------------------------------------------------------
 207   19:30   0.00   64.2    53    2.5    96     4.0   806.5    0.00 
 207   19:40   0.00   64.6    51    1.4    73     2.6   806.6    0.00 
 207   19:50   0.00   64.2    52    0.9   356     3.4   806.7    0.00 
 207   20:00   0.00   64.9    51    2.7   245     5.2   806.8    0.00 
 207   20:10   0.00   64.4    53    4.5   272     7.5   806.7    0.00 
 207   20:20   0.00   61.3    62    3.9   248     5.3   806.8    0.00 
 207   20:30   0.00   59.3    67    3.8   238     5.3   806.8    0.00 
 207   20:40   0.00   58.5    67    2.4   238     4.5   806.9    0.00 
 207   20:50   0.00   57.0    70    3.9    12     5.2   806.9    0.00 
 207   21:00   0.00   57.0    70    3.6    32     5.5   806.9    0.00 
 207   21:10   0.00   55.8    72    3.0    68     5.8   807.0    0.00 
 207   21:20   0.00   57.5    70    4.6    22     8.9   807.0    0.00 
 207   21:30   0.00   60.0    63    5.4    19    10.2   807.1    0.00 
 207   21:40   0.00   61.9    56    3.7    39     8.6   807.1    0.00 
 207   21:50   0.00   59.3    65    3.1   340     6.0   807.2    0.00 
 207   22:00   0.00   58.7    64    3.4    68     7.8   807.4    0.00 
 207   22:10   0.00   57.5    66    4.0    60     8.3   807.4    0.00 
 207   22:20   0.00   57.8    65    3.7    62     5.0   807.5    0.00 
 207   22:30   0.00   55.7    70    2.6    50     4.1   807.5    0.00 
 207   22:40   0.00   54.7    74    2.5   204     4.3   807.5    0.00 
 207   22:50   0.00   53.5    76    3.2   211     4.4   807.6    0.00 
 207   23:00   0.00   52.9    75    4.0   176     6.6   807.7    0.00 
 207   23:10   0.00   52.2    74    5.5   150    10.0   807.7    0.00 
 207   23:20   0.00   53.1    73    5.0   172     7.8   807.7    0.00 
 207   23:30   0.00   52.6    73    4.6   192     7.5   807.7    0.00 
 207   23:40   0.00   51.6    77    3.8   213     6.4   807.7    0.00 
 207   23:50   0.00   51.7    76    3.1   211     4.7   807.7    0.00 
 208    0:00   0.00   51.9    76    4.1   244     5.8   807.7    0.00 
 208    0:10   0.00   51.2    76    3.8   208     6.1   807.7    0.00 
 208    0:20   0.00   50.6    76    2.8   151     5.0   807.8    0.00 
 208    0:30   0.00   50.8    75    4.7   134     6.4   807.8    0.00 
 208    0:40   0.00   49.9    77    3.0   163     4.7   807.9    0.00 
 208    0:50   0.00   49.5    78    2.2   200     4.6   807.9    0.00 
 208    1:00   0.00   49.7    77    3.7   147     5.3   807.9    0.00 
 208    1:10   0.00   49.4    80    2.6   243     4.4   808.0    0.00 
 208    1:20   0.00   48.2    82    3.5   214     5.7   807.9    0.00 
 208    1:30   0.00   46.8    85    3.2   218     6.0   807.9    0.00 
 208    1:40   0.00   45.5    88    1.4   207     3.4   807.9    0.00 
 208    1:50   0.00   46.4    90    0.7   190     1.8   808.0    0.00 
 208    2:00   0.00   48.0    84    1.2   199     2.3   808.0    0.00 
 208    2:10   0.00   48.0    79    2.1   202     3.7   807.9    0.00 
 208    2:20   0.00   46.6    82    2.9   200     3.9   807.9    0.00 
 208    2:30   0.00   46.4    84    3.2   222     4.5   808.0    0.00 
 208    2:40   0.00   45.7    85    2.4   244     4.0   808.0    0.00 
 208    2:50   0.00   46.7    82    1.0   176     2.7   808.0    0.00 
 208    3:00   0.00   47.5    76    3.1   165     4.5   808.0    0.00 
 208    3:10   0.00   44.0    86    2.8   182     5.2   808.0    0.00 
 208    3:20   0.00   44.0    89    2.6   201     4.2   808.0    0.00 
 208    3:30   0.00   44.1    88    2.2   172     3.1   807.9    0.00 
 208    3:40   0.00   45.3    85    1.8   212     2.7   807.9    0.00 
 208    3:50   0.00   45.4    87    1.6   245     2.2   807.9    0.00 
 208    4:00   0.00   45.7    86    1.2   283     2.6   808.0    0.00 
 208    4:10   0.00   46.7    81    2.4   208     4.8   808.0    0.00 
 208    4:20   0.00   44.9    81    4.2   197     5.1   808.1    0.00 
 208    4:30   0.00   42.9    86    3.5   208     5.2   808.1    0.00 
 208    4:40   0.00   42.5    91    2.9   224     3.6   808.1    0.00 
 208    4:50   0.00   42.9    92    3.5   194     4.2   808.1    0.00 
 208    5:00   0.01   42.3    92    3.6   222     4.4   808.1    0.00 
 208    5:10   0.01   42.8    90    3.0   227     4.2   808.2    0.00 
 208    5:20   0.03   43.2    90    2.1   264     3.1   808.3    0.00 
 208    5:30   0.06   44.7    91    1.5   279     2.4   808.3    0.00 
 208    5:40   0.08   46.0    89    0.9   241     2.3   808.4    0.00 
 208    5:50   0.10   47.7    83    0.8   159     1.9   808.5    0.00 
 208    6:00   0.13   49.8    78    0.8   176     1.3   808.5    0.00 
 208    6:10   0.16   51.4    75    0.9   185     1.5   808.6    0.00 
 208    6:20   0.19   52.7    74    1.5   193     2.3   808.7    0.00 
 208    6:30   0.23   53.9    71    1.5   182     2.5   808.7    0.00 
 208    6:40   0.26   54.4    71    2.0   176     3.5   808.7    0.00 
 208    6:50   0.29   56.6    66    0.9   124     2.2   808.7    0.00 
 208    7:00   0.33   57.4    65    1.3   112     2.7   808.7    0.00 
 208    7:10   0.36   58.9    60    0.7    88     2.5   808.7    0.00 
 208    7:20   0.40   60.5    55    0.9    73     2.6   808.7    0.00 
 208    7:30   0.40   61.9    54    0.6    91     2.0   808.7    0.00 
 208    7:40   0.47   62.5    54    0.5   129     2.1   808.5    0.00 
 208    7:50   0.49   63.3    54    0.9   296     2.9   808.4    0.00 
 208    8:00   0.54   63.0    52    1.6    27     2.9   808.3    0.00 
 208    8:10   0.57   65.2    51    0.7    69     2.8   808.2    0.00 
 208    8:20   0.60   66.6    46    0.9    17     3.2   808.1    0.00 
 208    8:30   0.63   66.9    45    0.9   284     2.4   808.0    0.00 
 208    8:40   0.66   67.7    46    0.9   243     2.5   807.8    0.00 
 208    8:50   0.69   67.8    47    1.8   300     4.5   807.6    0.00 
 208    9:00   0.72   68.3    46    2.3   342     6.4   807.5    0.00 
 208    9:10   0.75   68.9    48    2.3    14     6.2   807.3    0.00 
 208    9:20   0.77   69.5    48    2.9    23     5.7   807.2    0.00 
 208    9:30   0.80   70.0    48    2.1    54     4.4   807.1    0.00 
 208    9:40   0.82   70.9    47    2.7     8     5.9   807.0    0.00 
 208    9:50   0.84   71.8    44    1.3    37     4.1   806.9    0.00 
 208   10:00   0.86   72.6    44    2.4    22     4.8   806.8    0.00 
 208   10:10   0.89   72.9    40    3.5   340     6.5   806.8    0.00 
 208   10:20   0.90   73.2    39    4.5   329     6.9   806.6    0.00 
 208   10:30   0.92   73.7    38    3.6   297     6.2   806.6    0.00 
 208   10:40   0.94   74.6    36    2.9   325     5.7   806.5    0.00 
 208   10:50   0.95   75.1    36    2.9   307     6.4   806.4    0.00 
 208   11:00   0.96   75.3    35    4.4   328     7.5   806.4    0.00 
 208   11:10   0.97   76.1    31    2.3    51     6.4   806.4    0.00 
 208   11:20   0.98   76.7    32    2.1    93     3.9   806.3    0.00 
 208   11:30   0.99   77.7    30    1.4   154     4.1   806.2    0.00 
 208   11:40   1.00   77.4    29    2.4   240     5.1   806.1    0.00 
 208   11:50   1.00   77.7    30    2.4    29     5.2   806.1    0.00 
 208   12:00   1.01   78.3    30    2.2    93     5.0   806.0    0.00 
 208   12:10   1.01   78.4    28    2.0   268     4.9   806.0    0.00 
 208   12:20   1.01   78.5    30    3.3    55     8.0   805.9    0.00 
 208   12:30   1.01   78.4    30    4.2    50     9.8   805.9    0.00 
 208   12:40   1.00   78.3    29    3.9   352    10.2   805.9    0.00 
 208   12:50   1.00   79.4    24    1.7   296     5.1   805.9    0.00 
 208   13:00   0.99   80.4    28    1.5   344     5.3   805.8    0.00 
 208   13:10   0.98   80.0    25    2.6    32     6.7   805.8    0.00 
 208   13:20   0.97   80.7    25    2.2   334     4.6   805.8    0.00 
 208   13:30   0.96   80.9    24    2.5    13     6.4   805.7    0.00 
 208   13:40   0.95   81.0    24    2.8   350     6.6   805.7    0.00 
 208   13:50   0.93   81.2    21    2.1    58     6.1   805.6    0.00 
 208   14:00   0.92   82.4    23    1.7   157     5.6   805.5    0.00 
 208   14:10   0.91   81.8    22    3.3   328     6.6   805.4    0.00 
 208   14:20   0.90   82.7    22    1.4   316     3.1   805.4    0.00 
 208   14:30   0.82   82.4    20    3.4   141     9.2   805.4    0.00 
 208   14:40   0.65   81.3    24    2.8   358     5.8   805.3    0.00 
 208   14:50   0.82   81.8    23    3.1   290     6.8   805.1    0.00 
 208   15:00   0.79   82.5    24    4.1   312     9.3   805.0    0.00 
 208   15:10   0.75   82.0    22    4.6   313     8.9   805.0    0.00 
 208   15:20   0.74   82.0    24    4.9   319     9.0   804.9    0.00 
 208   15:30   0.55   81.9    23    3.3   306     6.9   804.8    0.00 
 208   15:40   0.68   81.5    27    5.1   317     8.1   804.7    0.00 
 208   15:50   0.59   81.8    27    5.4   337     7.8   804.6    0.00 
 208   16:00   0.62   81.7    25    4.4   328     8.4   804.5    0.00 
 208   16:10   0.60   81.8    27    3.9   324     6.5   804.4    0.00 
 208   16:20   0.57   82.2    25    3.3   289     5.7   804.4    0.00 
 208   16:30   0.54   81.8    28    3.7   286     7.0   804.4    0.00 
 208   16:40   0.54   81.0    32    4.1   272     7.3   804.4    0.00 
 208   16:50   0.27   80.7    29    2.8   340     8.3   804.4    0.00 
 208   17:00   0.24   79.1    27    2.2   289     4.7   804.4    0.00 
 208   17:10   0.29   78.7    31    2.8   294     4.6   804.4    0.00 
 208   17:20   0.45   81.8    26    1.0   274     6.9   804.4    0.00 
 208   17:30   0.33   80.8    28    4.7    41    12.2   804.5    0.00 
 208   17:40   0.34   75.6    30   13.4   123    20.8   804.7    0.00 
 208   17:50   0.26   73.7    31   11.8   115    18.5   804.7    0.00 
 208   18:00   0.12   71.5    34    9.0   113    14.2   804.7    0.00 
 208   18:10   0.15   70.8    39    6.0    68    10.8   804.7    0.00 
 208   18:20   0.15   69.6    42    7.7    58    12.5   804.8    0.00 
 208   18:30   0.13   68.2    49    8.3    46    12.4   804.8    0.00 
 208   18:40   0.09   67.9    48    8.1    20    14.0   804.9    0.00 
 208   18:50   0.02   66.1    49    8.4    36    11.9   805.0    0.00 
 208   19:00   0.01   63.8    60    8.1   318    13.1   805.2    0.00 
 208   19:10   0.01   62.2    65    6.5   342    10.2   805.6    0.00 
 208   19:20   0.01   61.4    68    5.6   300     7.2   805.8    0.00 

Return to Bridgeport Valley graphs page.


Western Regional Climate Center,wrcc@dri.edu